sensor_id;sensor_type;location;lat;lon;timestamp;P1;durP1;ratioP1;P2;durP2;ratioP2
81934;SDS011;71405;47.674;-2.050;2024-02-21T00:00:40;1.42;;;0.88;;
81934;SDS011;71405;47.674;-2.050;2024-02-21T00:03:06;2.33;;;1.00;;
81934;SDS011;71405;47.674;-2.050;2024-02-21T00:05:32;1.30;;;0.90;;
81934;SDS011;71405;47.674;-2.050;2024-02-21T00:07:58;1.73;;;0.88;;
81934;SDS011;71405;47.674;-2.050;2024-02-21T00:10:24;0.88;;;0.85;;
81934;SDS011;71405;47.674;-2.050;2024-02-21T00:12:50;3.42;;;0.90;;
81934;SDS011;71405;47.674;-2.050;2024-02-21T00:15:16;1.85;;;0.80;;
81934;SDS011;71405;47.674;-2.050;2024-02-21T00:17:43;1.08;;;0.80;;
81934;SDS011;71405;47.674;-2.050;2024-02-21T00:20:09;2.15;;;0.90;;
81934;SDS011;71405;47.674;-2.050;2024-02-21T00:22:35;0.85;;;0.73;;
81934;SDS011;71405;47.674;-2.050;2024-02-21T00:25:01;0.85;;;0.73;;
81934;SDS011;71405;47.674;-2.050;2024-02-21T00:27:27;2.30;;;0.90;;
81934;SDS011;71405;47.674;-2.050;2024-02-21T00:29:53;1.77;;;0.75;;
81934;SDS011;71405;47.674;-2.050;2024-02-21T00:32:19;1.08;;;0.90;;
81934;SDS011;71405;47.674;-2.050;2024-02-21T00:34:44;2.42;;;1.20;;
81934;SDS011;71405;47.674;-2.050;2024-02-21T00:37:10;1.45;;;0.90;;
81934;SDS011;71405;47.674;-2.050;2024-02-21T00:39:35;2.17;;;1.00;;
81934;SDS011;71405;47.674;-2.050;2024-02-21T00:42:02;2.08;;;1.00;;
81934;SDS011;71405;47.674;-2.050;2024-02-21T00:44:28;1.00;;;0.70;;
81934;SDS011;71405;47.674;-2.050;2024-02-21T00:46:53;1.17;;;0.80;;
81934;SDS011;71405;47.674;-2.050;2024-02-21T00:49:19;2.20;;;1.02;;
81934;SDS011;71405;47.674;-2.050;2024-02-21T00:51:45;1.55;;;0.80;;
81934;SDS011;71405;47.674;-2.050;2024-02-21T00:54:10;1.63;;;1.00;;
81934;SDS011;71405;47.674;-2.050;2024-02-21T00:56:36;1.38;;;0.82;;
81934;SDS011;71405;47.674;-2.050;2024-02-21T00:59:02;2.03;;;0.90;;
81934;SDS011;71405;47.674;-2.050;2024-02-21T01:01:27;2.70;;;1.08;;
81934;SDS011;71405;47.674;-2.050;2024-02-21T01:03:53;0.70;;;0.68;;
81934;SDS011;71405;47.674;-2.050;2024-02-21T01:06:19;2.40;;;0.80;;
81934;SDS011;71405;47.674;-2.050;2024-02-21T01:08:46;2.65;;;1.00;;
81934;SDS011;71405;47.674;-2.050;2024-02-21T01:11:13;1.38;;;0.73;;
81934;SDS011;71405;47.674;-2.050;2024-02-21T01:13:39;0.70;;;0.70;;
81934;SDS011;71405;47.674;-2.050;2024-02-21T01:16:05;1.38;;;0.88;;
81934;SDS011;71405;47.674;-2.050;2024-02-21T01:18:32;1.38;;;0.75;;
81934;SDS011;71405;47.674;-2.050;2024-02-21T01:20:58;1.38;;;0.85;;
81934;SDS011;71405;47.674;-2.050;2024-02-21T01:23:24;1.65;;;0.80;;
81934;SDS011;71405;47.674;-2.050;2024-02-21T01:25:50;2.22;;;0.80;;
81934;SDS011;71405;47.674;-2.050;2024-02-21T01:28:16;0.80;;;0.73;;
81934;SDS011;71405;47.674;-2.050;2024-02-21T01:30:43;1.63;;;0.68;;
81934;SDS011;71405;47.674;-2.050;2024-02-21T01:33:08;2.50;;;0.90;;
81934;SDS011;71405;47.674;-2.050;2024-02-21T01:35:34;1.35;;;0.80;;
81934;SDS011;71405;47.674;-2.050;2024-02-21T01:38:00;1.40;;;0.90;;
81934;SDS011;71405;47.674;-2.050;2024-02-21T01:40:26;1.27;;;0.70;;
81934;SDS011;71405;47.674;-2.050;2024-02-21T01:42:56;1.92;;;0.70;;
81934;SDS011;71405;47.674;-2.050;2024-02-21T01:45:21;1.67;;;0.75;;
81934;SDS011;71405;47.674;-2.050;2024-02-21T01:47:47;2.33;;;0.80;;
81934;SDS011;71405;47.674;-2.050;2024-02-21T01:50:14;1.58;;;0.80;;
81934;SDS011;71405;47.674;-2.050;2024-02-21T01:52:42;1.35;;;0.85;;
81934;SDS011;71405;47.674;-2.050;2024-02-21T01:55:11;1.92;;;0.75;;
81934;SDS011;71405;47.674;-2.050;2024-02-21T01:57:39;2.40;;;0.80;;
81934;SDS011;71405;47.674;-2.050;2024-02-21T02:00:06;2.17;;;0.88;;
81934;SDS011;71405;47.674;-2.050;2024-02-21T02:02:34;0.57;;;0.57;;
81934;SDS011;71405;47.674;-2.050;2024-02-21T02:05:00;3.05;;;1.02;;
81934;SDS011;71405;47.674;-2.050;2024-02-21T02:07:26;0.88;;;0.60;;
81934;SDS011;71405;47.674;-2.050;2024-02-21T02:09:52;0.95;;;0.70;;
81934;SDS011;71405;47.674;-2.050;2024-02-21T02:12:17;1.33;;;0.70;;
81934;SDS011;71405;47.674;-2.050;2024-02-21T02:14:43;2.33;;;0.85;;
81934;SDS011;71405;47.674;-2.050;2024-02-21T02:17:09;1.15;;;0.82;;
81934;SDS011;71405;47.674;-2.050;2024-02-21T02:19:35;1.63;;;0.70;;
81934;SDS011;71405;47.674;-2.050;2024-02-21T02:22:05;1.67;;;0.68;;
81934;SDS011;71405;47.674;-2.050;2024-02-21T02:24:34;2.33;;;0.90;;
81934;SDS011;71405;47.674;-2.050;2024-02-21T02:27:00;1.15;;;0.60;;
81934;SDS011;71405;47.674;-2.050;2024-02-21T02:29:26;1.95;;;0.70;;
81934;SDS011;71405;47.674;-2.050;2024-02-21T02:31:52;2.00;;;0.70;;
81934;SDS011;71405;47.674;-2.050;2024-02-21T02:34:17;3.65;;;0.90;;
81934;SDS011;71405;47.674;-2.050;2024-02-21T02:36:43;1.08;;;0.50;;
81934;SDS011;71405;47.674;-2.050;2024-02-21T02:39:09;1.73;;;0.63;;
81934;SDS011;71405;47.674;-2.050;2024-02-21T02:41:35;1.80;;;0.88;;
81934;SDS011;71405;47.674;-2.050;2024-02-21T02:44:01;1.25;;;0.75;;
81934;SDS011;71405;47.674;-2.050;2024-02-21T02:46:27;2.38;;;0.93;;
81934;SDS011;71405;47.674;-2.050;2024-02-21T02:48:52;2.20;;;0.80;;
81934;SDS011;71405;47.674;-2.050;2024-02-21T02:51:18;2.95;;;0.70;;
81934;SDS011;71405;47.674;-2.050;2024-02-21T02:53:43;2.17;;;0.73;;
81934;SDS011;71405;47.674;-2.050;2024-02-21T02:56:13;2.08;;;0.60;;
81934;SDS011;71405;47.674;-2.050;2024-02-21T02:58:40;1.60;;;0.80;;
81934;SDS011;71405;47.674;-2.050;2024-02-21T03:01:07;2.03;;;0.70;;
81934;SDS011;71405;47.674;-2.050;2024-02-21T03:03:33;1.98;;;0.70;;
81934;SDS011;71405;47.674;-2.050;2024-02-21T03:05:58;1.60;;;0.60;;
81934;SDS011;71405;47.674;-2.050;2024-02-21T03:08:24;1.17;;;0.70;;
81934;SDS011;71405;47.674;-2.050;2024-02-21T03:10:50;1.48;;;0.80;;
81934;SDS011;71405;47.674;-2.050;2024-02-21T03:13:15;2.67;;;0.90;;
81934;SDS011;71405;47.674;-2.050;2024-02-21T03:15:41;0.82;;;0.50;;
81934;SDS011;71405;47.674;-2.050;2024-02-21T03:18:07;1.58;;;0.77;;
81934;SDS011;71405;47.674;-2.050;2024-02-21T03:20:33;1.70;;;0.88;;
81934;SDS011;71405;47.674;-2.050;2024-02-21T03:22:58;2.17;;;0.80;;
81934;SDS011;71405;47.674;-2.050;2024-02-21T03:25:24;2.05;;;0.70;;
81934;SDS011;71405;47.674;-2.050;2024-02-21T03:27:50;1.20;;;0.63;;
81934;SDS011;71405;47.674;-2.050;2024-02-21T03:30:16;2.78;;;0.82;;
81934;SDS011;71405;47.674;-2.050;2024-02-21T03:32:42;1.42;;;0.73;;
81934;SDS011;71405;47.674;-2.050;2024-02-21T03:35:08;1.77;;;0.60;;
81934;SDS011;71405;47.674;-2.050;2024-02-21T03:37:33;1.67;;;0.60;;
81934;SDS011;71405;47.674;-2.050;2024-02-21T03:39:59;2.30;;;1.00;;
81934;SDS011;71405;47.674;-2.050;2024-02-21T03:42:25;2.15;;;0.75;;
81934;SDS011;71405;47.674;-2.050;2024-02-21T03:44:50;1.77;;;0.80;;
81934;SDS011;71405;47.674;-2.050;2024-02-21T03:47:16;1.08;;;0.60;;
81934;SDS011;71405;47.674;-2.050;2024-02-21T03:49:42;1.05;;;0.50;;
81934;SDS011;71405;47.674;-2.050;2024-02-21T03:52:07;1.80;;;0.65;;
81934;SDS011;71405;47.674;-2.050;2024-02-21T03:54:34;1.65;;;0.80;;
81934;SDS011;71405;47.674;-2.050;2024-02-21T03:56:59;1.08;;;0.60;;
81934;SDS011;71405;47.674;-2.050;2024-02-21T03:59:25;2.30;;;0.82;;
81934;SDS011;71405;47.674;-2.050;2024-02-21T04:01:51;1.35;;;0.80;;
81934;SDS011;71405;47.674;-2.050;2024-02-21T04:04:18;3.00;;;0.80;;
81934;SDS011;71405;47.674;-2.050;2024-02-21T04:06:50;2.60;;;0.60;;
81934;SDS011;71405;47.674;-2.050;2024-02-21T04:09:16;2.00;;;0.80;;
81934;SDS011;71405;47.674;-2.050;2024-02-21T04:11:42;1.30;;;0.57;;
81934;SDS011;71405;47.674;-2.050;2024-02-21T04:14:08;1.60;;;0.63;;
81934;SDS011;71405;47.674;-2.050;2024-02-21T04:16:36;1.45;;;0.75;;
81934;SDS011;71405;47.674;-2.050;2024-02-21T04:19:02;3.03;;;1.00;;
81934;SDS011;71405;47.674;-2.050;2024-02-21T04:21:27;1.48;;;0.68;;
81934;SDS011;71405;47.674;-2.050;2024-02-21T04:23:53;1.02;;;0.50;;
81934;SDS011;71405;47.674;-2.050;2024-02-21T04:26:19;1.33;;;0.52;;
81934;SDS011;71405;47.674;-2.050;2024-02-21T04:28:45;1.30;;;0.70;;
81934;SDS011;71405;47.674;-2.050;2024-02-21T04:31:11;2.15;;;0.60;;
81934;SDS011;71405;47.674;-2.050;2024-02-21T04:33:36;1.10;;;0.80;;
81934;SDS011;71405;47.674;-2.050;2024-02-21T04:36:02;1.30;;;0.70;;
81934;SDS011;71405;47.674;-2.050;2024-02-21T04:38:28;1.48;;;0.60;;
81934;SDS011;71405;47.674;-2.050;2024-02-21T04:40:54;1.10;;;0.57;;
81934;SDS011;71405;47.674;-2.050;2024-02-21T04:43:23;1.67;;;0.60;;
81934;SDS011;71405;47.674;-2.050;2024-02-21T04:45:49;1.67;;;0.70;;
81934;SDS011;71405;47.674;-2.050;2024-02-21T04:48:16;1.52;;;0.70;;
81934;SDS011;71405;47.674;-2.050;2024-02-21T04:50:41;2.30;;;0.73;;
81934;SDS011;71405;47.674;-2.050;2024-02-21T04:53:07;1.20;;;0.57;;
81934;SDS011;71405;47.674;-2.050;2024-02-21T04:55:33;1.13;;;0.57;;
81934;SDS011;71405;47.674;-2.050;2024-02-21T04:57:58;1.58;;;0.57;;
81934;SDS011;71405;47.674;-2.050;2024-02-21T05:00:25;1.70;;;0.70;;
81934;SDS011;71405;47.674;-2.050;2024-02-21T05:02:51;1.50;;;0.65;;
81934;SDS011;71405;47.674;-2.050;2024-02-21T05:05:16;2.50;;;0.60;;
81934;SDS011;71405;47.674;-2.050;2024-02-21T05:07:42;2.13;;;0.77;;
81934;SDS011;71405;47.674;-2.050;2024-02-21T05:10:08;0.90;;;0.50;;
81934;SDS011;71405;47.674;-2.050;2024-02-21T05:12:34;0.50;;;0.50;;
81934;SDS011;71405;47.674;-2.050;2024-02-21T05:15:00;0.90;;;0.52;;
81934;SDS011;71405;47.674;-2.050;2024-02-21T05:17:26;1.23;;;0.60;;
81934;SDS011;71405;47.674;-2.050;2024-02-21T05:19:52;1.35;;;0.60;;
81934;SDS011;71405;47.674;-2.050;2024-02-21T05:22:17;2.20;;;0.55;;
81934;SDS011;71405;47.674;-2.050;2024-02-21T05:24:43;0.70;;;0.60;;
81934;SDS011;71405;47.674;-2.050;2024-02-21T05:27:08;1.27;;;0.70;;
81934;SDS011;71405;47.674;-2.050;2024-02-21T05:29:34;1.13;;;0.60;;
81934;SDS011;71405;47.674;-2.050;2024-02-21T05:32:00;0.70;;;0.40;;
81934;SDS011;71405;47.674;-2.050;2024-02-21T05:34:26;1.13;;;0.70;;
81934;SDS011;71405;47.674;-2.050;2024-02-21T05:36:51;1.83;;;0.50;;
81934;SDS011;71405;47.674;-2.050;2024-02-21T05:39:17;2.28;;;0.65;;
81934;SDS011;71405;47.674;-2.050;2024-02-21T05:41:43;1.85;;;0.60;;
81934;SDS011;71405;47.674;-2.050;2024-02-21T05:44:10;1.15;;;0.40;;
81934;SDS011;71405;47.674;-2.050;2024-02-21T05:46:36;1.55;;;0.88;;
81934;SDS011;71405;47.674;-2.050;2024-02-21T05:49:01;1.88;;;0.65;;
81934;SDS011;71405;47.674;-2.050;2024-02-21T05:51:27;10.77;;;4.35;;
81934;SDS011;71405;47.674;-2.050;2024-02-21T05:53:53;3.10;;;1.13;;
81934;SDS011;71405;47.674;-2.050;2024-02-21T05:56:18;2.03;;;0.60;;
81934;SDS011;71405;47.674;-2.050;2024-02-21T05:58:44;2.30;;;0.77;;
81934;SDS011;71405;47.674;-2.050;2024-02-21T06:01:10;1.90;;;0.65;;
81934;SDS011;71405;47.674;-2.050;2024-02-21T06:03:36;3.60;;;1.13;;
81934;SDS011;71405;47.674;-2.050;2024-02-21T06:06:02;3.30;;;0.88;;
81934;SDS011;71405;47.674;-2.050;2024-02-21T06:08:29;3.20;;;0.73;;
81934;SDS011;71405;47.674;-2.050;2024-02-21T06:10:55;4.40;;;1.00;;
81934;SDS011;71405;47.674;-2.050;2024-02-21T06:13:21;1.38;;;0.50;;
81934;SDS011;71405;47.674;-2.050;2024-02-21T06:15:48;1.67;;;0.70;;
81934;SDS011;71405;47.674;-2.050;2024-02-21T06:18:15;2.80;;;1.08;;
81934;SDS011;71405;47.674;-2.050;2024-02-21T06:20:44;3.38;;;0.80;;
81934;SDS011;71405;47.674;-2.050;2024-02-21T06:23:11;0.77;;;0.60;;
81934;SDS011;71405;47.674;-2.050;2024-02-21T06:25:37;2.72;;;0.75;;
81934;SDS011;71405;47.674;-2.050;2024-02-21T06:28:03;2.28;;;0.70;;
81934;SDS011;71405;47.674;-2.050;2024-02-21T06:30:29;1.70;;;0.50;;
81934;SDS011;71405;47.674;-2.050;2024-02-21T06:32:55;5.57;;;1.38;;
81934;SDS011;71405;47.674;-2.050;2024-02-21T06:35:21;1.75;;;0.77;;
81934;SDS011;71405;47.674;-2.050;2024-02-21T06:37:49;3.70;;;1.10;;
81934;SDS011;71405;47.674;-2.050;2024-02-21T06:40:20;2.83;;;0.57;;
81934;SDS011;71405;47.674;-2.050;2024-02-21T06:42:47;1.42;;;0.73;;
81934;SDS011;71405;47.674;-2.050;2024-02-21T06:45:13;1.73;;;0.60;;
81934;SDS011;71405;47.674;-2.050;2024-02-21T06:47:38;3.22;;;0.77;;
81934;SDS011;71405;47.674;-2.050;2024-02-21T06:50:04;2.92;;;0.90;;
81934;SDS011;71405;47.674;-2.050;2024-02-21T06:52:30;1.90;;;0.95;;
81934;SDS011;71405;47.674;-2.050;2024-02-21T06:54:56;1.08;;;0.55;;
81934;SDS011;71405;47.674;-2.050;2024-02-21T06:57:22;1.05;;;0.70;;
81934;SDS011;71405;47.674;-2.050;2024-02-21T06:59:48;1.67;;;0.70;;
81934;SDS011;71405;47.674;-2.050;2024-02-21T07:02:13;2.83;;;0.60;;
81934;SDS011;71405;47.674;-2.050;2024-02-21T07:04:39;2.33;;;0.88;;
81934;SDS011;71405;47.674;-2.050;2024-02-21T07:07:05;1.23;;;0.60;;
81934;SDS011;71405;47.674;-2.050;2024-02-21T07:09:30;5.15;;;1.27;;
81934;SDS011;71405;47.674;-2.050;2024-02-21T07:12:00;23.80;;;6.60;;
81934;SDS011;71405;47.674;-2.050;2024-02-21T07:14:27;28.23;;;7.13;;
81934;SDS011;71405;47.674;-2.050;2024-02-21T07:16:53;29.40;;;8.35;;
81934;SDS011;71405;47.674;-2.050;2024-02-21T07:19:19;23.20;;;7.15;;
81934;SDS011;71405;47.674;-2.050;2024-02-21T07:21:45;27.00;;;7.35;;
81934;SDS011;71405;47.674;-2.050;2024-02-21T07:24:10;26.65;;;8.20;;
81934;SDS011;71405;47.674;-2.050;2024-02-21T07:26:37;21.38;;;7.00;;
81934;SDS011;71405;47.674;-2.050;2024-02-21T07:29:07;24.33;;;6.95;;
81934;SDS011;71405;47.674;-2.050;2024-02-21T07:31:38;21.25;;;6.40;;
81934;SDS011;71405;47.674;-2.050;2024-02-21T07:34:06;18.95;;;6.03;;
81934;SDS011;71405;47.674;-2.050;2024-02-21T07:36:31;22.45;;;6.10;;
81934;SDS011;71405;47.674;-2.050;2024-02-21T07:38:57;19.65;;;6.82;;
81934;SDS011;71405;47.674;-2.050;2024-02-21T07:41:23;15.77;;;5.78;;
81934;SDS011;71405;47.674;-2.050;2024-02-21T07:43:48;20.42;;;5.63;;
81934;SDS011;71405;47.674;-2.050;2024-02-21T07:46:15;19.50;;;6.68;;
81934;SDS011;71405;47.674;-2.050;2024-02-21T07:48:40;16.88;;;5.88;;
81934;SDS011;71405;47.674;-2.050;2024-02-21T07:51:06;17.65;;;5.47;;
81934;SDS011;71405;47.674;-2.050;2024-02-21T07:53:32;16.88;;;4.78;;
81934;SDS011;71405;47.674;-2.050;2024-02-21T07:55:57;13.48;;;4.20;;
81934;SDS011;71405;47.674;-2.050;2024-02-21T07:58:23;16.10;;;4.57;;
81934;SDS011;71405;47.674;-2.050;2024-02-21T08:00:48;11.85;;;4.05;;
81934;SDS011;71405;47.674;-2.050;2024-02-21T08:03:14;14.50;;;4.90;;
81934;SDS011;71405;47.674;-2.050;2024-02-21T08:05:42;15.00;;;4.30;;
81934;SDS011;71405;47.674;-2.050;2024-02-21T08:08:08;13.98;;;4.60;;
81934;SDS011;71405;47.674;-2.050;2024-02-21T08:10:34;11.35;;;3.92;;
81934;SDS011;71405;47.674;-2.050;2024-02-21T08:13:00;13.07;;;4.22;;
81934;SDS011;71405;47.674;-2.050;2024-02-21T08:15:25;12.32;;;3.90;;
81934;SDS011;71405;47.674;-2.050;2024-02-21T08:17:54;12.55;;;3.80;;
81934;SDS011;71405;47.674;-2.050;2024-02-21T08:20:24;11.30;;;4.00;;
81934;SDS011;71405;47.674;-2.050;2024-02-21T08:22:50;13.02;;;3.63;;
81934;SDS011;71405;47.674;-2.050;2024-02-21T08:25:15;13.20;;;3.35;;
81934;SDS011;71405;47.674;-2.050;2024-02-21T08:27:41;11.68;;;3.33;;
81934;SDS011;71405;47.674;-2.050;2024-02-21T08:30:07;13.45;;;3.65;;
81934;SDS011;71405;47.674;-2.050;2024-02-21T08:32:33;13.20;;;4.00;;
81934;SDS011;71405;47.674;-2.050;2024-02-21T08:35:01;11.25;;;3.10;;
81934;SDS011;71405;47.674;-2.050;2024-02-21T08:37:27;11.90;;;3.42;;
81934;SDS011;71405;47.674;-2.050;2024-02-21T08:39:53;13.40;;;4.15;;
81934;SDS011;71405;47.674;-2.050;2024-02-21T08:42:19;12.85;;;3.35;;
81934;SDS011;71405;47.674;-2.050;2024-02-21T08:44:45;10.77;;;3.55;;
81934;SDS011;71405;47.674;-2.050;2024-02-21T08:47:10;9.48;;;2.80;;
81934;SDS011;71405;47.674;-2.050;2024-02-21T08:49:36;10.18;;;3.47;;
81934;SDS011;71405;47.674;-2.050;2024-02-21T08:52:02;10.88;;;2.70;;
81934;SDS011;71405;47.674;-2.050;2024-02-21T08:54:28;9.60;;;3.08;;
81934;SDS011;71405;47.674;-2.050;2024-02-21T08:56:54;8.55;;;2.55;;
81934;SDS011;71405;47.674;-2.050;2024-02-21T08:59:20;11.00;;;3.10;;
81934;SDS011;71405;47.674;-2.050;2024-02-21T09:01:46;9.55;;;2.88;;
81934;SDS011;71405;47.674;-2.050;2024-02-21T09:04:12;8.20;;;2.70;;
81934;SDS011;71405;47.674;-2.050;2024-02-21T09:06:37;8.73;;;2.70;;
81934;SDS011;71405;47.674;-2.050;2024-02-21T09:09:07;8.48;;;3.08;;
81934;SDS011;71405;47.674;-2.050;2024-02-21T09:11:33;10.00;;;2.83;;
81934;SDS011;71405;47.674;-2.050;2024-02-21T09:13:59;9.63;;;2.95;;
81934;SDS011;71405;47.674;-2.050;2024-02-21T09:16:25;8.07;;;2.75;;
81934;SDS011;71405;47.674;-2.050;2024-02-21T09:18:51;8.23;;;2.83;;
81934;SDS011;71405;47.674;-2.050;2024-02-21T09:21:17;7.30;;;2.40;;
81934;SDS011;71405;47.674;-2.050;2024-02-21T09:23:43;9.00;;;2.60;;
81934;SDS011;71405;47.674;-2.050;2024-02-21T09:26:10;7.57;;;2.70;;
81934;SDS011;71405;47.674;-2.050;2024-02-21T09:28:39;8.88;;;2.58;;
81934;SDS011;71405;47.674;-2.050;2024-02-21T09:31:04;6.70;;;2.40;;
81934;SDS011;71405;47.674;-2.050;2024-02-21T09:33:30;6.55;;;2.35;;
81934;SDS011;71405;47.674;-2.050;2024-02-21T09:35:56;6.45;;;2.30;;
81934;SDS011;71405;47.674;-2.050;2024-02-21T09:38:21;11.65;;;3.47;;
81934;SDS011;71405;47.674;-2.050;2024-02-21T09:40:47;7.70;;;2.75;;
81934;SDS011;71405;47.674;-2.050;2024-02-21T09:43:22;9.98;;;2.70;;
81934;SDS011;71405;47.674;-2.050;2024-02-21T09:45:48;8.48;;;2.50;;
81934;SDS011;71405;47.674;-2.050;2024-02-21T09:51:07;7.95;;;2.10;;
81934;SDS011;71405;47.674;-2.050;2024-02-21T09:53:35;9.20;;;2.70;;
81934;SDS011;71405;47.674;-2.050;2024-02-21T09:56:03;8.07;;;2.40;;
81934;SDS011;71405;47.674;-2.050;2024-02-21T09:58:32;5.25;;;2.10;;
81934;SDS011;71405;47.674;-2.050;2024-02-21T10:00:59;7.18;;;2.17;;
81934;SDS011;71405;47.674;-2.050;2024-02-21T10:03:25;7.35;;;2.33;;
81934;SDS011;71405;47.674;-2.050;2024-02-21T10:05:51;8.20;;;2.78;;
81934;SDS011;71405;47.674;-2.050;2024-02-21T10:08:17;7.18;;;2.00;;
81934;SDS011;71405;47.674;-2.050;2024-02-21T10:10:43;7.05;;;2.15;;
81934;SDS011;71405;47.674;-2.050;2024-02-21T10:13:10;7.00;;;2.22;;
81934;SDS011;71405;47.674;-2.050;2024-02-21T10:15:36;6.93;;;2.20;;
81934;SDS011;71405;47.674;-2.050;2024-02-21T10:18:02;7.32;;;2.25;;
81934;SDS011;71405;47.674;-2.050;2024-02-21T10:20:28;6.80;;;2.03;;
81934;SDS011;71405;47.674;-2.050;2024-02-21T10:23:03;6.55;;;2.10;;
81934;SDS011;71405;47.674;-2.050;2024-02-21T10:25:36;7.15;;;1.90;;
81934;SDS011;71405;47.674;-2.050;2024-02-21T10:28:13;4.85;;;1.98;;
81934;SDS011;71405;47.674;-2.050;2024-02-21T10:30:49;7.03;;;1.98;;
81934;SDS011;71405;47.674;-2.050;2024-02-21T10:33:17;5.03;;;2.15;;
81934;SDS011;71405;47.674;-2.050;2024-02-21T10:35:47;7.55;;;2.05;;
81934;SDS011;71405;47.674;-2.050;2024-02-21T10:38:14;8.02;;;2.20;;
81934;SDS011;71405;47.674;-2.050;2024-02-21T10:40:40;5.20;;;1.95;;
81934;SDS011;71405;47.674;-2.050;2024-02-21T10:43:06;6.18;;;2.20;;
81934;SDS011;71405;47.674;-2.050;2024-02-21T10:45:37;5.00;;;1.95;;
81934;SDS011;71405;47.674;-2.050;2024-02-21T10:48:16;5.53;;;2.00;;
81934;SDS011;71405;47.674;-2.050;2024-02-21T10:50:56;6.20;;;2.10;;
81934;SDS011;71405;47.674;-2.050;2024-02-21T10:59:00;6.03;;;2.15;;
81934;SDS011;71405;47.674;-2.050;2024-02-21T11:01:30;5.65;;;1.98;;
81934;SDS011;71405;47.674;-2.050;2024-02-21T11:04:05;6.10;;;1.60;;
81934;SDS011;71405;47.674;-2.050;2024-02-21T11:06:37;5.97;;;2.00;;
81934;SDS011;71405;47.674;-2.050;2024-02-21T11:11:40;6.45;;;1.80;;
81934;SDS011;71405;47.674;-2.050;2024-02-21T11:14:10;5.35;;;1.90;;
81934;SDS011;71405;47.674;-2.050;2024-02-21T11:16:40;5.65;;;1.95;;
81934;SDS011;71405;47.674;-2.050;2024-02-21T11:19:07;5.18;;;1.85;;
81934;SDS011;71405;47.674;-2.050;2024-02-21T11:21:37;5.57;;;1.95;;
81934;SDS011;71405;47.674;-2.050;2024-02-21T11:24:03;11.90;;;2.60;;
81934;SDS011;71405;47.674;-2.050;2024-02-21T11:26:30;23.90;;;16.33;;
81934;SDS011;71405;47.674;-2.050;2024-02-21T11:29:00;6.53;;;1.85;;
81934;SDS011;71405;47.674;-2.050;2024-02-21T11:31:27;7.95;;;2.28;;
81934;SDS011;71405;47.674;-2.050;2024-02-21T11:34:04;5.07;;;1.80;;
81934;SDS011;71405;47.674;-2.050;2024-02-21T11:36:30;6.22;;;2.00;;
81934;SDS011;71405;47.674;-2.050;2024-02-21T11:39:02;7.55;;;2.30;;
81934;SDS011;71405;47.674;-2.050;2024-02-21T11:41:29;6.65;;;1.92;;
81934;SDS011;71405;47.674;-2.050;2024-02-21T11:43:55;5.68;;;1.52;;
81934;SDS011;71405;47.674;-2.050;2024-02-21T11:46:21;5.72;;;2.10;;
81934;SDS011;71405;47.674;-2.050;2024-02-21T11:48:48;5.93;;;1.98;;
81934;SDS011;71405;47.674;-2.050;2024-02-21T11:51:22;4.28;;;1.60;;
81934;SDS011;71405;47.674;-2.050;2024-02-21T11:53:51;5.28;;;2.00;;
81934;SDS011;71405;47.674;-2.050;2024-02-21T11:56:18;5.63;;;1.65;;
81934;SDS011;71405;47.674;-2.050;2024-02-21T11:58:45;6.40;;;2.15;;
81934;SDS011;71405;47.674;-2.050;2024-02-21T12:01:14;6.03;;;2.17;;
81934;SDS011;71405;47.674;-2.050;2024-02-21T12:03:40;4.32;;;1.60;;
81934;SDS011;71405;47.674;-2.050;2024-02-21T12:06:14;4.93;;;1.98;;
81934;SDS011;71405;47.674;-2.050;2024-02-21T12:08:44;7.00;;;1.98;;
81934;SDS011;71405;47.674;-2.050;2024-02-21T12:11:19;6.10;;;2.10;;
81934;SDS011;71405;47.674;-2.050;2024-02-21T12:13:47;5.13;;;1.80;;
81934;SDS011;71405;47.674;-2.050;2024-02-21T12:16:15;4.88;;;1.83;;
81934;SDS011;71405;47.674;-2.050;2024-02-21T12:18:43;7.47;;;2.25;;
81934;SDS011;71405;47.674;-2.050;2024-02-21T12:21:09;8.15;;;2.22;;
81934;SDS011;71405;47.674;-2.050;2024-02-21T12:23:37;7.32;;;1.95;;
81934;SDS011;71405;47.674;-2.050;2024-02-21T12:26:04;8.43;;;2.30;;
81934;SDS011;71405;47.674;-2.050;2024-02-21T12:28:30;10.35;;;3.22;;
81934;SDS011;71405;47.674;-2.050;2024-02-21T12:30:55;29.05;;;15.43;;
81934;SDS011;71405;47.674;-2.050;2024-02-21T12:33:21;17.52;;;7.45;;
81934;SDS011;71405;47.674;-2.050;2024-02-21T12:35:47;13.02;;;3.65;;
81934;SDS011;71405;47.674;-2.050;2024-02-21T12:38:14;9.25;;;2.50;;
81934;SDS011;71405;47.674;-2.050;2024-02-21T12:40:39;6.70;;;1.90;;
81934;SDS011;71405;47.674;-2.050;2024-02-21T12:43:05;6.72;;;2.15;;
81934;SDS011;71405;47.674;-2.050;2024-02-21T12:45:31;5.90;;;1.60;;
81934;SDS011;71405;47.674;-2.050;2024-02-21T12:47:58;4.10;;;1.70;;
81934;SDS011;71405;47.674;-2.050;2024-02-21T12:50:24;3.20;;;1.42;;
81934;SDS011;71405;47.674;-2.050;2024-02-21T12:52:49;6.57;;;1.92;;
81934;SDS011;71405;47.674;-2.050;2024-02-21T12:55:15;5.22;;;2.13;;
81934;SDS011;71405;47.674;-2.050;2024-02-21T12:57:41;3.85;;;1.50;;
81934;SDS011;71405;47.674;-2.050;2024-02-21T13:00:07;4.72;;;1.73;;
81934;SDS011;71405;47.674;-2.050;2024-02-21T13:02:34;4.50;;;1.80;;
81934;SDS011;71405;47.674;-2.050;2024-02-21T13:05:00;6.45;;;1.70;;
81934;SDS011;71405;47.674;-2.050;2024-02-21T13:07:27;5.05;;;1.50;;
81934;SDS011;71405;47.674;-2.050;2024-02-21T13:09:57;5.85;;;1.88;;
81934;SDS011;71405;47.674;-2.050;2024-02-21T13:12:23;4.50;;;1.65;;
81934;SDS011;71405;47.674;-2.050;2024-02-21T13:14:51;6.45;;;1.85;;
81934;SDS011;71405;47.674;-2.050;2024-02-21T13:17:16;4.30;;;1.60;;
81934;SDS011;71405;47.674;-2.050;2024-02-21T13:19:42;18.40;;;8.20;;
81934;SDS011;71405;47.674;-2.050;2024-02-21T13:22:08;7.75;;;2.15;;
81934;SDS011;71405;47.674;-2.050;2024-02-21T13:24:34;6.20;;;2.08;;
81934;SDS011;71405;47.674;-2.050;2024-02-21T13:27:01;5.68;;;1.85;;
81934;SDS011;71405;47.674;-2.050;2024-02-21T13:29:28;6.47;;;1.90;;
81934;SDS011;71405;47.674;-2.050;2024-02-21T13:31:53;5.38;;;1.65;;
81934;SDS011;71405;47.674;-2.050;2024-02-21T13:34:19;11.48;;;2.70;;
81934;SDS011;71405;47.674;-2.050;2024-02-21T13:36:45;17.25;;;4.65;;
81934;SDS011;71405;47.674;-2.050;2024-02-21T13:39:11;32.15;;;9.57;;
81934;SDS011;71405;47.674;-2.050;2024-02-21T13:41:40;30.90;;;8.25;;
81934;SDS011;71405;47.674;-2.050;2024-02-21T13:44:07;26.27;;;7.40;;
81934;SDS011;71405;47.674;-2.050;2024-02-21T13:46:34;23.20;;;7.53;;
81934;SDS011;71405;47.674;-2.050;2024-02-21T13:49:03;20.38;;;6.93;;
81934;SDS011;71405;47.674;-2.050;2024-02-21T13:51:33;24.40;;;8.30;;
81934;SDS011;71405;47.674;-2.050;2024-02-21T13:54:01;28.65;;;8.82;;
81934;SDS011;71405;47.674;-2.050;2024-02-21T13:56:28;27.27;;;8.60;;
81934;SDS011;71405;47.674;-2.050;2024-02-21T13:58:54;25.42;;;8.60;;
81934;SDS011;71405;47.674;-2.050;2024-02-21T14:01:20;22.38;;;7.00;;
81934;SDS011;71405;47.674;-2.050;2024-02-21T14:03:45;22.48;;;6.45;;
81934;SDS011;71405;47.674;-2.050;2024-02-21T14:06:11;19.23;;;5.97;;
81934;SDS011;71405;47.674;-2.050;2024-02-21T14:08:37;20.35;;;6.85;;
81934;SDS011;71405;47.674;-2.050;2024-02-21T14:11:04;19.65;;;6.10;;
81934;SDS011;71405;47.674;-2.050;2024-02-21T14:13:31;20.05;;;6.63;;
81934;SDS011;71405;47.674;-2.050;2024-02-21T14:15:57;19.52;;;5.78;;
81934;SDS011;71405;47.674;-2.050;2024-02-21T14:18:22;19.45;;;6.72;;
81934;SDS011;71405;47.674;-2.050;2024-02-21T14:20:48;17.90;;;6.80;;
81934;SDS011;71405;47.674;-2.050;2024-02-21T14:23:13;19.25;;;6.28;;
81934;SDS011;71405;47.674;-2.050;2024-02-21T14:25:39;17.02;;;5.70;;
81934;SDS011;71405;47.674;-2.050;2024-02-21T14:28:07;12.23;;;4.53;;
81934;SDS011;71405;47.674;-2.050;2024-02-21T14:30:34;15.32;;;5.15;;
81934;SDS011;71405;47.674;-2.050;2024-02-21T14:33:00;14.77;;;5.55;;
81934;SDS011;71405;47.674;-2.050;2024-02-21T14:35:26;16.55;;;5.32;;
81934;SDS011;71405;47.674;-2.050;2024-02-21T14:37:51;14.07;;;5.18;;